Terminal Aerodrome Forecast
Issued by NWS Sioux Falls, SD

Home | Current Version | Previous Version | Text Only | Print | Product List | Glossary On
Versions: 1 2 3 4 5 6 7 8 9 10 11 12 13 14 15 16 17 18
000
FTUS43 KFSD 131120
TAFHON
TAF
KHON 131120Z 1312/1412 36003KT P6SM SKC
     FM131700 15009KT P6SM SKC
     FM140300 15010KT P6SM SCT030 OVC050
     FM140500 15010KT P6SM VCSH BKN030 OVC040
     FM140900 17005KT P6SM SCT030 BKN040=

USA.gov is the U.S. government's official web portal to all federal, state and local government web resources and services.